Time;durP1;ratioP1;P1;durP2;ratioP2;P2;SDS_P1;SDS_P2;PMS_P1;PMS_P2;Temp;Humidity;BMP_temperature;BMP_pressure;BME280_temperature;BME280_humidity;BME280_pressure;Samples;Min_cycle;Max_cycle;Signal;HPM_P1;HPM_P2
2022/11/07 00:02:03;;;;;;;1.75;1.20;;;11.90;99.90;;;;;;5027374;28;20190;-68
2022/11/07 00:04:30;;;;;;;1.08;0.98;;;12.00;99.90;;;;;;5031269;28;20239;-68
2022/11/07 00:06:56;;;;;;;1.67;1.23;;;12.00;99.90;;;;;;5032982;28;20294;-68
2022/11/07 00:09:22;;;;;;;1.20;1.10;;;11.90;99.90;;;;;;5027877;28;20612;-68
2022/11/07 00:11:48;;;;;;;1.50;1.40;;;11.80;99.90;;;;;;5033971;28;20189;-68
2022/11/07 00:14:15;;;;;;;1.40;1.30;;;12.00;99.90;;;;;;5033408;28;20284;-68
2022/11/07 00:16:42;;;;;;;1.75;1.30;;;12.00;99.90;;;;;;5036838;28;20201;-67
2022/11/07 00:19:08;;;;;;;1.15;1.05;;;11.70;99.90;;;;;;5030976;28;20186;-67
2022/11/07 00:21:34;;;;;;;1.08;0.90;;;11.90;99.90;;;;;;5031811;28;20188;-67
2022/11/07 00:24:00;;;;;;;1.20;1.00;;;11.80;99.90;;;;;;5028899;28;20275;-67
2022/11/07 00:26:26;;;;;;;1.33;1.23;;;11.90;99.90;;;;;;5031963;28;20208;-66
2022/11/07 00:28:52;;;;;;;1.00;1.00;;;11.90;99.90;;;;;;5031034;28;20186;-67
2022/11/07 00:31:18;;;;;;;1.17;1.07;;;11.80;99.90;;;;;;5031831;28;20439;-67
2022/11/07 00:33:44;;;;;;;1.85;1.15;;;11.90;99.90;;;;;;5026081;28;20184;-67
2022/11/07 00:36:22;;;;;;;1.77;1.00;;;12.00;99.90;;;;;;5032420;28;20219;-67
2022/11/07 00:38:48;;;;;;;1.10;0.90;;;11.80;99.90;;;;;;5022864;28;20181;-67
2022/11/07 00:41:15;;;;;;;1.15;1.05;;;11.90;99.90;;;;;;5032267;28;20185;-66
2022/11/07 00:43:40;;;;;;;1.55;1.05;;;11.90;99.90;;;;;;5033524;28;20182;-67
2022/11/07 00:46:08;;;;;;;1.70;1.20;;;12.00;99.90;;;;;;5032524;28;20308;-67
2022/11/07 00:48:35;;;;;;;1.50;1.40;;;12.00;99.90;;;;;;5030600;28;20585;-67
2022/11/07 00:51:12;;;;;;;1.23;1.02;;;12.20;99.90;;;;;;5031702;28;20181;-67
2022/11/07 00:53:38;;;;;;;1.00;0.90;;;12.30;99.90;;;;;;5025548;28;20309;-67
2022/11/07 00:56:07;;;;;;;1.30;1.20;;;12.30;99.90;;;;;;5032330;28;20254;-67
2022/11/07 00:58:33;;;;;;;1.45;1.02;;;12.40;99.90;;;;;;5031279;28;20283;-67
2022/11/07 01:01:05;;;;;;;1.77;1.30;;;12.10;99.90;;;;;;5032404;28;20187;-67
2022/11/07 01:06:15;;;;;;;1.25;1.15;;;12.20;99.90;;;;;;5029247;28;20212;-67
2022/11/07 01:08:40;;;;;;;1.80;1.40;;;12.20;99.90;;;;;;5026472;28;20182;-67
2022/11/07 01:11:06;;;;;;;1.27;0.93;;;12.40;99.90;;;;;;5031748;28;20219;-67
2022/11/07 01:13:32;;;;;;;1.47;0.90;;;12.40;99.90;;;;;;5025982;28;20185;-67
2022/11/07 01:15:58;;;;;;;2.38;1.08;;;12.10;99.90;;;;;;5024813;28;20478;-67
2022/11/07 01:18:24;;;;;;;1.00;0.90;;;12.30;99.90;;;;;;5035588;28;20177;-67
2022/11/07 01:20:49;;;;;;;1.30;1.20;;;12.30;99.90;;;;;;5034568;28;20212;-67
2022/11/07 01:23:16;;;;;;;1.30;1.20;;;12.50;99.90;;;;;;5022526;28;20188;-67
2022/11/07 01:25:41;;;;;;;1.27;1.10;;;12.10;99.90;;;;;;5030836;28;20231;-67
2022/11/07 01:28:08;;;;;;;1.40;1.30;;;11.80;99.90;;;;;;5031551;28;20208;-67
2022/11/07 01:30:41;;;;;;;1.27;1.17;;;12.30;99.90;;;;;;5031290;28;20255;-67
2022/11/07 01:33:07;;;;;;;1.20;1.10;;;11.90;99.90;;;;;;5023726;28;20632;-67
2022/11/07 01:35:34;;;;;;;1.30;1.20;;;11.90;99.90;;;;;;5032284;28;20219;-67
2022/11/07 01:37:59;;;;;;;1.30;1.20;;;12.10;99.90;;;;;;5022522;28;20661;-65
2022/11/07 01:40:26;;;;;;;1.10;1.00;;;12.00;99.90;;;;;;5028801;28;20200;-66
2022/11/07 01:42:51;;;;;;;1.30;1.20;;;12.10;99.90;;;;;;5030965;28;20220;-66
2022/11/07 01:45:24;;;;;;;1.30;1.20;;;12.00;99.90;;;;;;5026413;28;20246;-67
2022/11/07 01:47:52;;;;;;;1.30;1.20;;;11.80;99.90;;;;;;5025633;28;20716;-65
2022/11/07 01:50:18;;;;;;;1.38;1.20;;;12.00;99.90;;;;;;5030256;28;20377;-66
2022/11/07 01:52:48;;;;;;;2.23;1.73;;;11.80;99.90;;;;;;5029540;28;20567;-66
2022/11/07 01:55:18;;;;;;;1.48;1.35;;;11.90;99.90;;;;;;5029686;28;20599;-66
2022/11/07 01:57:48;;;;;;;2.08;1.60;;;11.90;99.90;;;;;;5030964;28;20209;-67
2022/11/07 02:00:17;;;;;;;1.40;1.30;;;11.80;99.90;;;;;;5028713;28;20661;-66
2022/11/07 02:02:45;;;;;;;1.70;1.35;;;11.50;99.90;;;;;;5029197;28;20220;-66
2022/11/07 02:05:29;;;;;;;1.52;1.42;;;11.50;99.90;;;;;;5031319;28;20198;-66
2022/11/07 02:07:56;;;;;;;1.80;1.35;;;11.30;99.90;;;;;;5030454;28;20687;-69
2022/11/07 02:10:22;;;;;;;1.65;1.35;;;11.60;99.90;;;;;;5032026;28;20570;-66
2022/11/07 02:12:48;;;;;;;1.38;1.20;;;11.40;99.90;;;;;;5026247;28;20204;-66
2022/11/07 02:15:14;;;;;;;1.60;1.50;;;11.50;99.90;;;;;;5031234;28;20195;-68
2022/11/07 02:17:40;;;;;;;1.43;1.33;;;11.50;99.90;;;;;;5024478;28;20194;-66
2022/11/07 02:20:06;;;;;;;1.40;1.30;;;11.60;99.90;;;;;;5028214;28;20199;-68
2022/11/07 02:22:52;;;;;;;1.40;1.30;;;11.50;99.90;;;;;;5028415;28;20208;-65
2022/11/07 02:25:19;;;;;;;1.70;1.60;;;11.60;99.90;;;;;;5027646;28;20215;-66
2022/11/07 02:27:50;;;;;;;1.10;1.00;;;11.50;99.90;;;;;;5029626;28;20203;-66
2022/11/07 02:30:19;;;;;;;1.50;1.40;;;11.40;99.90;;;;;;5031351;28;20283;-65
2022/11/07 02:32:45;;;;;;;2.00;1.25;;;11.80;99.90;;;;;;5029600;28;20524;-65
2022/11/07 02:35:40;;;;;;;2.00;1.60;;;11.50;99.90;;;;;;5027922;28;20215;-68
2022/11/07 02:38:16;;;;;;;1.58;1.48;;;11.50;99.90;;;;;;5024019;28;20513;-68
2022/11/07 02:40:45;;;;;;;1.33;1.13;;;11.50;99.90;;;;;;5028156;28;20196;-66
2022/11/07 02:43:13;;;;;;;2.22;2.00;;;11.60;99.90;;;;;;5031589;28;20240;-66
2022/11/07 02:45:42;;;;;;;1.58;1.48;;;11.40;99.90;;;;;;5027308;28;20286;-67
2022/11/07 02:48:09;;;;;;;1.75;1.42;;;11.60;99.90;;;;;;5028995;28;20240;-67
2022/11/07 02:50:35;;;;;;;1.30;1.20;;;11.60;99.90;;;;;;5030622;28;20241;-67
2022/11/07 02:53:00;;;;;;;5.15;1.40;;;11.70;99.90;;;;;;5029009;28;20176;-67
2022/11/07 02:55:26;;;;;;;1.90;1.60;;;11.90;99.90;;;;;;5024326;28;20196;-68
2022/11/07 02:57:52;;;;;;;1.57;1.30;;;11.70;99.90;;;;;;5030210;28;20192;-68
2022/11/07 03:00:17;;;;;;;1.87;1.63;;;12.00;99.90;;;;;;5032230;28;20190;-67
2022/11/07 03:02:45;;;;;;;1.30;1.20;;;12.10;99.90;;;;;;5022669;28;20204;-67
2022/11/07 03:05:13;;;;;;;1.88;1.30;;;12.00;99.90;;;;;;5030379;28;20210;-67
2022/11/07 03:07:41;;;;;;;1.58;1.48;;;11.90;99.90;;;;;;5029769;28;20207;-67
2022/11/07 03:10:07;;;;;;;1.50;1.40;;;12.10;99.90;;;;;;5025896;28;20181;-67
2022/11/07 03:12:33;;;;;;;1.40;1.20;;;12.00;99.90;;;;;;5029907;28;20293;-68
2022/11/07 03:14:59;;;;;;;1.80;1.70;;;12.10;99.90;;;;;;5029708;28;20299;-68
2022/11/07 03:17:24;;;;;;;2.03;1.40;;;12.20;99.90;;;;;;5028653;28;20202;-69
2022/11/07 03:19:50;;;;;;;1.47;1.20;;;11.90;99.90;;;;;;5028544;28;20238;-67
2022/11/07 03:22:16;;;;;;;1.67;1.57;;;12.00;99.90;;;;;;5027262;28;20245;-68
2022/11/07 03:24:41;;;;;;;2.40;1.37;;;11.90;99.90;;;;;;5023461;28;20200;-68
2022/11/07 03:27:07;;;;;;;1.93;1.83;;;12.00;99.90;;;;;;5026799;28;20275;-68
2022/11/07 03:29:32;;;;;;;1.50;1.40;;;12.10;99.90;;;;;;5026466;28;20267;-68
2022/11/07 03:31:58;;;;;;;1.30;1.20;;;12.10;99.90;;;;;;5030005;28;20189;-67
2022/11/07 03:34:23;;;;;;;2.03;1.70;;;11.90;99.90;;;;;;5029995;28;20220;-69
2022/11/07 03:36:49;;;;;;;1.50;1.40;;;12.20;99.90;;;;;;5026883;28;20229;-69
2022/11/07 03:39:15;;;;;;;2.37;1.23;;;12.10;99.90;;;;;;5022927;28;20215;-68
2022/11/07 03:41:40;;;;;;;1.37;1.27;;;12.20;99.90;;;;;;5023492;28;20603;-68
2022/11/07 03:44:06;;;;;;;1.80;1.57;;;12.40;99.90;;;;;;5031182;28;20184;-68
2022/11/07 03:46:31;;;;;;;1.63;1.53;;;12.10;99.90;;;;;;5029468;28;20242;-68
2022/11/07 03:48:57;;;;;;;6.97;1.90;;;12.50;99.90;;;;;;5033605;28;20553;-68
2022/11/07 03:51:23;;;;;;;1.60;1.50;;;12.30;99.90;;;;;;5033728;28;20539;-68
2022/11/07 03:53:48;;;;;;;2.13;1.50;;;12.50;99.90;;;;;;5034745;28;20275;-69
2022/11/07 03:56:14;;;;;;;2.20;1.70;;;12.30;99.90;;;;;;5030394;28;20209;-68
2022/11/07 03:58:40;;;;;;;1.50;1.40;;;12.60;99.90;;;;;;5028463;28;20201;-68
2022/11/07 04:01:05;;;;;;;1.47;1.37;;;12.50;99.90;;;;;;5032285;28;20207;-68
2022/11/07 04:03:32;;;;;;;1.70;1.60;;;12.20;99.90;;;;;;5034412;28;20581;-68
2022/11/07 04:05:58;;;;;;;1.70;1.60;;;12.30;99.90;;;;;;5033066;28;20204;-69
2022/11/07 04:08:24;;;;;;;1.30;1.15;;;12.30;99.90;;;;;;5029311;28;20212;-68
2022/11/07 04:10:50;;;;;;;2.13;1.87;;;12.10;99.90;;;;;;5054426;28;20189;-68
2022/11/07 04:18:44;;;;;;;1.50;1.20;;;12.00;99.90;;;;;;5026198;28;20246;-69
2022/11/07 04:21:10;;;;;;;1.83;1.70;;;12.30;99.90;;;;;;5027439;28;20572;-68
2022/11/07 04:23:36;;;;;;;2.13;1.30;;;12.10;99.90;;;;;;5028187;28;20196;-68
2022/11/07 04:28:46;;;;;;;7.25;2.80;;;11.90;99.90;;;;;;5027819;28;20568;-69
2022/11/07 04:31:12;;;;;;;1.73;1.52;;;12.00;99.90;;;;;;5033017;28;20228;-66
2022/11/07 04:33:38;;;;;;;2.23;1.97;;;12.20;99.90;;;;;;5033921;28;20224;-69
2022/11/07 04:36:03;;;;;;;1.80;1.40;;;12.10;99.90;;;;;;5022497;28;20214;-67
2022/11/07 04:38:29;;;;;;;1.50;1.40;;;12.30;99.90;;;;;;5026598;28;20195;-69
2022/11/07 04:40:56;;;;;;;3.27;2.03;;;12.00;99.90;;;;;;5029370;28;20876;-69
2022/11/07 04:43:23;;;;;;;1.90;1.50;;;12.10;99.90;;;;;;5035667;28;20196;-69
2022/11/07 04:45:49;;;;;;;2.83;1.88;;;12.10;99.90;;;;;;5031394;28;20298;-68
2022/11/07 04:48:15;;;;;;;2.72;2.00;;;12.30;99.90;;;;;;5030876;28;20291;-69
2022/11/07 04:50:42;;;;;;;2.10;1.90;;;12.30;99.90;;;;;;5032920;28;20272;-68
2022/11/07 04:53:14;;;;;;;1.75;1.65;;;12.00;99.90;;;;;;5033845;28;20439;-66
2022/11/07 04:55:41;;;;;;;2.35;2.00;;;12.00;99.90;;;;;;5025537;28;20210;-67
2022/11/07 04:58:07;;;;;;;1.88;1.63;;;12.30;99.90;;;;;;5028532;28;20543;-69
2022/11/07 05:00:33;;;;;;;2.28;2.08;;;12.00;99.90;;;;;;5021963;28;20396;-69
2022/11/07 05:02:59;;;;;;;1.73;1.60;;;12.00;99.90;;;;;;5029314;28;20278;-67
2022/11/07 05:05:24;;;;;;;1.80;1.67;;;11.90;99.90;;;;;;5032675;28;20206;-68
2022/11/07 05:07:50;;;;;;;2.67;2.13;;;12.00;99.90;;;;;;5024987;28;20494;-68
2022/11/07 05:10:23;;;;;;;2.03;1.83;;;11.50;99.90;;;;;;5025129;28;20183;-67
2022/11/07 05:12:48;;;;;;;2.90;2.35;;;11.80;99.90;;;;;;5027492;28;20673;-67
2022/11/07 05:15:15;;;;;;;2.60;2.20;;;11.40;99.90;;;;;;5029265;28;20241;-67
2022/11/07 05:17:41;;;;;;;2.88;2.58;;;11.50;99.90;;;;;;5031692;28;20704;-67
2022/11/07 05:20:16;;;;;;;2.33;2.10;;;11.20;99.90;;;;;;5022854;28;20188;-67
2022/11/07 05:25:26;;;;;;;3.65;2.20;;;11.10;99.90;;;;;;5031839;28;20210;-68
2022/11/07 05:27:55;;;;;;;2.33;2.13;;;10.90;99.90;;;;;;5029317;28;20199;-66
2022/11/07 05:30:20;;;;;;;3.40;2.10;;;11.10;99.90;;;;;;5026133;28;20226;-67
2022/11/07 05:32:46;;;;;;;2.60;2.27;;;10.90;99.90;;;;;;5031222;28;20227;-67
2022/11/07 05:35:11;;;;;;;3.57;2.40;;;11.10;99.90;;;;;;5030077;28;20202;-67
2022/11/07 05:37:37;;;;;;;3.60;2.63;;;10.90;99.90;;;;;;5030051;28;20206;-67
2022/11/07 05:40:03;;;;;;;2.50;2.10;;;10.70;99.90;;;;;;5026445;28;20176;-67
2022/11/07 05:42:29;;;;;;;4.30;3.30;;;10.80;99.90;;;;;;5022891;28;20270;-67
2022/11/07 05:44:54;;;;;;;2.50;1.73;;;10.70;99.90;;;;;;5030187;28;20439;-67
2022/11/07 05:47:20;;;;;;;4.30;2.40;;;10.60;99.90;;;;;;5024088;28;20207;-67
2022/11/07 05:49:45;;;;;;;3.00;2.47;;;10.70;99.90;;;;;;5030785;28;20180;-67
2022/11/07 05:52:11;;;;;;;2.53;2.33;;;10.90;99.90;;;;;;5027619;28;20189;-66
2022/11/07 05:54:37;;;;;;;3.25;2.10;;;11.00;99.90;;;;;;5028838;28;20178;-67
2022/11/07 05:57:03;;;;;;;3.03;2.67;;;10.90;99.90;;;;;;5028899;28;20257;-67
2022/11/07 05:59:28;;;;;;;2.83;2.63;;;10.70;99.90;;;;;;5020652;28;20204;-66
2022/11/07 06:01:54;;;;;;;3.13;2.30;;;10.60;99.90;;;;;;5030823;28;20190;-67
2022/11/07 06:04:20;;;;;;;3.17;2.30;;;10.50;99.90;;;;;;5048046;28;20186;-67
2022/11/07 06:06:45;;;;;;;2.50;2.30;;;10.70;99.90;;;;;;5028214;28;20242;-66
2022/11/07 06:09:11;;;;;;;2.70;2.37;;;10.30;99.90;;;;;;5024862;28;20183;-67
2022/11/07 06:11:36;;;;;;;3.23;2.57;;;10.80;99.90;;;;;;5033025;28;20639;-67
2022/11/07 06:14:02;;;;;;;4.00;3.33;;;10.70;99.90;;;;;;5028535;28;20570;-67
2022/11/07 06:16:28;;;;;;;3.72;2.80;;;10.60;99.90;;;;;;5026292;28;20211;-66
2022/11/07 06:18:54;;;;;;;2.50;2.30;;;10.70;99.90;;;;;;5022356;28;20198;-66
2022/11/07 06:21:19;;;;;;;4.77;3.20;;;10.50;99.90;;;;;;5028584;28;20184;-66
2022/11/07 06:23:45;;;;;;;2.90;2.57;;;10.90;99.90;;;;;;5038306;28;20181;-66
2022/11/07 06:26:11;;;;;;;3.60;3.30;;;10.60;99.90;;;;;;5036695;28;20291;-66
2022/11/07 06:28:36;;;;;;;4.37;2.77;;;10.60;99.90;;;;;;5023589;28;20229;-66
2022/11/07 06:31:03;;;;;;;4.47;2.50;;;10.60;99.90;;;;;;5036656;28;20650;-66
2022/11/07 06:33:29;;;;;;;4.82;3.20;;;10.80;99.90;;;;;;5045001;28;20178;-66
2022/11/07 06:36:02;;;;;;;5.15;3.33;;;10.70;99.90;;;;;;5017609;28;20715;-66
2022/11/07 06:38:28;;;;;;;4.82;2.95;;;10.50;99.90;;;;;;5024306;28;20226;-66
2022/11/07 06:40:53;;;;;;;3.67;3.37;;;10.40;99.90;;;;;;5047478;28;20214;-66
2022/11/07 06:43:19;;;;;;;6.43;3.23;;;10.70;99.90;;;;;;5042438;28;21198;-66
2022/11/07 06:45:46;;;;;;;4.00;2.90;;;10.80;99.90;;;;;;5028296;28;20686;-67
2022/11/07 06:48:12;;;;;;;3.42;3.13;;;10.70;99.90;;;;;;5028291;28;20303;-66
2022/11/07 06:50:38;;;;;;;3.75;2.85;;;10.90;99.90;;;;;;5042337;28;20183;-68
2022/11/07 06:53:06;;;;;;;5.30;3.30;;;10.90;99.90;;;;;;5018892;28;20223;-68
2022/11/07 06:55:35;;;;;;;4.43;3.00;;;10.90;99.90;;;;;;5041149;28;20461;-67
2022/11/07 06:58:02;;;;;;;5.50;2.90;;;11.00;99.90;;;;;;5028021;28;20195;-67
2022/11/07 07:00:29;;;;;;;6.05;3.30;;;11.00;99.90;;;;;;5028768;28;20188;-67
2022/11/07 07:02:54;;;;;;;3.72;2.60;;;11.00;99.90;;;;;;5027422;28;20214;-66
2022/11/07 07:05:20;;;;;;;7.80;3.43;;;11.00;99.90;;;;;;5029324;28;20253;-66
2022/11/07 07:07:46;;;;;;;3.95;2.70;;;10.90;99.90;;;;;;5019687;28;20227;-66
2022/11/07 07:10:12;;;;;;;3.83;3.20;;;11.20;99.90;;;;;;5027455;28;20584;-66
2022/11/07 07:12:38;;;;;;;5.67;3.90;;;11.40;99.90;;;;;;5041507;28;20453;-66
2022/11/07 07:15:04;;;;;;;4.77;3.10;;;11.40;99.90;;;;;;5037181;28;20663;-66
2022/11/07 07:17:29;;;;;;;4.32;3.92;;;11.30;99.90;;;;;;5034333;28;20243;-66
2022/11/07 07:19:55;;;;;;;4.50;3.23;;;11.50;99.90;;;;;;5037039;28;20650;-67
2022/11/07 07:22:21;;;;;;;3.60;3.07;;;11.30;99.90;;;;;;5028885;28;20256;-66
2022/11/07 07:24:49;;;;;;;7.20;3.57;;;11.40;99.90;;;;;;5030210;28;20288;-66
2022/11/07 07:27:15;;;;;;;3.72;3.20;;;11.60;99.90;;;;;;5023927;28;20260;-66
2022/11/07 07:29:41;;;;;;;5.60;4.33;;;11.40;99.90;;;;;;5028750;28;20216;-66
2022/11/07 07:32:06;;;;;;;4.33;3.03;;;11.60;99.90;;;;;;5026498;28;20186;-67
2022/11/07 07:34:32;;;;;;;3.30;2.80;;;11.80;99.90;;;;;;5019900;28;20190;-67
2022/11/07 07:36:57;;;;;;;3.83;3.40;;;11.90;99.90;;;;;;5018105;28;20238;-67
2022/11/07 07:39:24;;;;;;;4.17;3.00;;;12.00;99.90;;;;;;5019930;28;20194;-67
2022/11/07 07:41:49;;;;;;;4.47;3.40;;;12.00;99.90;;;;;;5027944;28;20216;-67
2022/11/07 07:44:15;;;;;;;5.07;3.73;;;12.10;99.90;;;;;;5027354;28;20228;-67
2022/11/07 07:46:41;;;;;;;6.20;5.40;;;12.10;99.90;;;;;;5026165;28;20211;-67
2022/11/07 07:49:07;;;;;;;4.57;4.17;;;12.00;99.90;;;;;;5023333;28;20181;-67
2022/11/07 07:51:33;;;;;;;7.90;5.35;;;12.30;99.90;;;;;;5028747;28;20662;-67
2022/11/07 07:53:59;;;;;;;6.37;4.60;;;12.00;99.90;;;;;;5029836;28;20243;-67
2022/11/07 07:56:24;;;;;;;5.33;4.83;;;12.40;99.90;;;;;;5042130;28;20531;-67
2022/11/07 07:58:50;;;;;;;7.00;5.10;;;12.60;99.90;;;;;;5036541;28;20205;-66
2022/11/07 08:01:16;;;;;;;6.17;3.80;;;12.40;99.90;;;;;;5040718;28;20198;-67
2022/11/07 08:03:41;;;;;;;5.30;3.43;;;12.80;99.90;;;;;;5028428;28;20248;-67
2022/11/07 08:06:09;;;;;;;3.87;1.90;;;12.70;99.90;;;;;;5021163;28;20305;-67
2022/11/07 08:08:35;;;;;;;2.28;2.05;;;13.00;99.90;;;;;;5023372;28;20210;-67
2022/11/07 08:11:02;;;;;;;3.63;2.37;;;13.10;99.90;;;;;;5024980;28;20269;-66
2022/11/07 08:13:29;;;;;;;3.28;3.08;;;13.30;99.90;;;;;;5028930;28;20445;-64
2022/11/07 08:15:55;;;;;;;2.92;2.30;;;13.40;99.90;;;;;;5033720;28;20218;-67
2022/11/07 08:18:22;;;;;;;3.03;1.52;;;13.60;99.90;;;;;;5033382;28;20548;-67
2022/11/07 08:20:53;;;;;;;2.10;1.83;;;13.80;99.90;;;;;;5032542;28;20217;-64
2022/11/07 08:23:19;;;;;;;3.38;1.95;;;13.80;99.90;;;;;;5024315;28;20186;-67
2022/11/07 08:25:51;;;;;;;3.85;2.58;;;14.50;99.90;;;;;;5023109;28;20210;-64
2022/11/07 08:28:16;;;;;;;2.33;1.92;;;14.20;99.90;;;;;;5028897;28;20202;-67
2022/11/07 08:30:42;;;;;;;2.93;1.60;;;14.20;99.90;;;;;;5018130;28;20555;-66
2022/11/07 08:33:08;;;;;;;2.27;1.90;;;14.50;99.90;;;;;;5030975;28;20428;-66
2022/11/07 08:35:33;;;;;;;3.53;1.90;;;14.50;99.90;;;;;;5023911;28;20223;-66
2022/11/07 08:37:59;;;;;;;2.20;1.50;;;14.40;99.90;;;;;;5030394;28;20548;-66
2022/11/07 08:40:26;;;;;;;4.00;1.60;;;14.20;99.90;;;;;;5028177;28;20265;-65
2022/11/07 08:42:51;;;;;;;3.28;1.77;;;14.30;99.90;;;;;;5025690;28;20193;-66
2022/11/07 08:45:17;;;;;;;3.83;1.60;;;14.50;99.90;;;;;;5031762;28;20603;-65
2022/11/07 08:47:43;;;;;;;2.60;1.70;;;14.50;99.90;;;;;;5032122;28;20302;-65
2022/11/07 08:50:09;;;;;;;2.80;1.97;;;14.40;99.90;;;;;;5022992;28;20214;-66
2022/11/07 08:52:35;;;;;;;3.40;1.97;;;14.50;99.90;;;;;;5032114;28;20636;-65
2022/11/07 08:55:02;;;;;;;2.27;1.47;;;14.50;99.90;;;;;;5028588;28;20213;-66
2022/11/07 08:57:27;;;;;;;6.10;2.08;;;14.50;99.90;;;;;;5038224;28;20436;-67
2022/11/07 08:59:54;;;;;;;4.10;1.70;;;14.60;99.90;;;;;;5036653;28;20192;-67
2022/11/07 09:02:20;;;;;;;1.85;1.30;;;14.70;99.90;;;;;;5044767;28;20232;-67
2022/11/07 09:04:45;;;;;;;1.77;1.50;;;14.70;99.90;;;;;;5032226;28;20190;-66
2022/11/07 09:07:11;;;;;;;3.43;1.70;;;14.90;99.90;;;;;;5027521;28;20217;-66
2022/11/07 09:09:36;;;;;;;2.37;2.07;;;15.10;99.90;;;;;;5024802;28;20186;-66
2022/11/07 09:12:02;;;;;;;3.50;1.70;;;15.00;99.90;;;;;;5031882;28;20220;-66
2022/11/07 09:14:28;;;;;;;2.97;2.00;;;15.30;99.90;;;;;;5035354;28;20181;-66
2022/11/07 09:16:54;;;;;;;3.33;2.07;;;15.30;99.90;;;;;;5029462;28;20469;-65
2022/11/07 09:19:19;;;;;;;4.13;1.60;;;15.50;99.90;;;;;;5034155;28;20651;-66
2022/11/07 09:21:45;;;;;;;4.30;1.63;;;15.60;99.90;;;;;;5031451;28;20210;-65
2022/11/07 09:24:11;;;;;;;4.60;2.10;;;15.50;99.90;;;;;;5026749;28;20624;-65
2022/11/07 09:26:36;;;;;;;3.30;2.37;;;15.40;99.90;;;;;;5026359;28;20214;-66
2022/11/07 09:29:02;;;;;;;2.20;1.47;;;15.40;99.90;;;;;;5026951;28;20195;-65
2022/11/07 09:31:28;;;;;;;4.07;1.90;;;15.40;99.90;;;;;;5031402;28;20189;-65
2022/11/07 09:33:53;;;;;;;5.63;1.77;;;15.70;99.90;;;;;;5033450;28;20190;-65
2022/11/07 09:36:20;;;;;;;2.60;1.87;;;15.70;99.90;;;;;;5026132;28;20301;-65
2022/11/07 09:38:46;;;;;;;3.10;1.50;;;15.80;99.90;;;;;;5031056;28;20201;-65
2022/11/07 09:41:30;;;;;;;3.20;1.77;;;15.70;99.90;;;;;;5036805;28;20189;-65
2022/11/07 09:44:16;;;;;;;3.05;1.63;;;15.70;99.90;;;;;;5036949;28;20204;-65
2022/11/07 09:47:17;;;;;;;5.28;1.90;;;15.50;99.90;;;;;;5029147;28;20219;-65
2022/11/07 09:49:56;;;;;;;2.92;1.50;;;15.60;99.90;;;;;;5038005;28;20188;-66
2022/11/07 09:52:50;;;;;;;3.13;1.42;;;15.60;99.90;;;;;;5024224;28;20188;-66
2022/11/07 09:55:31;;;;;;;3.83;1.40;;;15.90;99.90;;;;;;5024593;28;20288;-66
2022/11/07 09:58:03;;;;;;;4.82;1.70;;;15.70;99.90;;;;;;5024881;28;20275;-67
2022/11/07 10:00:31;;;;;;;2.97;1.50;;;15.60;99.90;;;;;;5036560;28;20273;-67
2022/11/07 10:02:58;;;;;;;5.45;2.38;;;15.70;99.90;;;;;;5027777;28;20182;-66
2022/11/07 10:05:40;;;;;;;4.55;2.60;;;15.80;99.90;;;;;;5040609;28;20403;-68
2022/11/07 10:08:33;;;;;;;1.80;1.50;;;15.80;99.90;;;;;;5017972;28;20683;-67
2022/11/07 10:11:07;;;;;;;5.22;1.88;;;15.60;99.90;;;;;;5028210;28;20683;-65
2022/11/07 10:13:58;;;;;;;3.70;1.73;;;15.80;99.90;;;;;;5037867;28;20213;-65
2022/11/07 10:17:08;;;;;;;2.40;1.35;;;15.80;99.90;;;;;;5028387;28;20202;-65
2022/11/07 10:19:58;;;;;;;3.38;1.50;;;15.60;99.90;;;;;;5008138;28;20240;-66
2022/11/07 10:25:17;;;;;;;2.47;1.65;;;15.80;99.90;;;;;;5005284;28;20242;-70
2022/11/07 10:27:47;;;;;;;4.60;1.88;;;15.50;99.90;;;;;;5010779;28;20553;-69
2022/11/07 10:30:19;;;;;;;4.53;1.75;;;15.30;99.90;;;;;;4993085;28;20193;-70
2022/11/07 10:33:02;;;;;;;3.28;1.30;;;15.60;99.90;;;;;;5011172;28;20214;-70
2022/11/07 10:35:31;;;;;;;1.80;1.20;;;15.90;99.90;;;;;;4987692;28;20199;-70
2022/11/07 10:37:59;;;;;;;5.32;1.70;;;15.60;99.90;;;;;;5011157;28;20564;-69
2022/11/07 10:40:34;;;;;;;4.63;2.22;;;15.80;99.90;;;;;;5016218;28;20197;-69
2022/11/07 10:43:04;;;;;;;2.05;1.20;;;15.80;99.90;;;;;;4999977;28;20218;-70
2022/11/07 10:45:31;;;;;;;3.10;1.73;;;15.80;99.90;;;;;;5009660;28;20547;-69
2022/11/07 10:48:02;;;;;;;12.20;2.38;;;15.80;99.90;;;;;;5016517;28;20258;-69
2022/11/07 10:50:28;;;;;;;2.40;1.42;;;15.60;99.90;;;;;;5022837;28;20179;-70
2022/11/07 10:53:08;;;;;;;3.67;1.60;;;15.80;99.90;;;;;;5022472;28;20228;-70
2022/11/07 10:55:45;;;;;;;4.25;1.45;;;16.10;99.90;;;;;;4998920;28;20609;-67
2022/11/07 10:58:20;;;;;;;2.83;2.40;;;16.40;99.90;;;;;;5009809;28;20286;-68
2022/11/07 11:01:02;;;;;;;4.43;1.85;;;16.30;99.70;;;;;;5018631;28;20186;-68
2022/11/07 11:03:41;;;;;;;2.42;1.35;;;16.50;99.40;;;;;;4993831;28;20185;-67
2022/11/07 11:06:17;;;;;;;4.78;1.63;;;16.40;98.90;;;;;;5005222;28;20264;-68
2022/11/07 11:08:45;;;;;;;2.75;1.58;;;16.60;99.10;;;;;;5003805;28;20241;-68
2022/11/07 11:11:19;;;;;;;2.45;1.65;;;16.60;99.10;;;;;;4986277;28;20598;-68
2022/11/07 11:13:46;;;;;;;4.25;1.70;;;16.60;99.00;;;;;;5010694;28;20194;-68
2022/11/07 11:16:25;;;;;;;6.13;3.30;;;16.40;99.10;;;;;;4998690;28;20282;-68
2022/11/07 11:18:53;;;;;;;3.08;1.80;;;16.50;99.20;;;;;;4987381;28;20183;-67
2022/11/07 11:21:19;;;;;;;3.70;3.35;;;16.50;99.20;;;;;;5009824;28;20191;-68
2022/11/07 11:23:47;;;;;;;2.78;1.90;;;16.60;99.10;;;;;;5002232;28;20319;-68
2022/11/07 11:26:29;;;;;;;3.60;2.15;;;16.90;99.20;;;;;;5009166;28;20218;-68
2022/11/07 11:29:01;;;;;;;8.35;4.53;;;16.90;98.90;;;;;;5029752;28;20250;-69
2022/11/07 11:31:38;;;;;;;2.88;1.60;;;17.00;99.00;;;;;;5022243;28;20179;-69
2022/11/07 11:34:33;;;;;;;3.38;2.13;;;17.00;98.70;;;;;;4985160;28;20988;-69
2022/11/07 11:37:02;;;;;;;2.10;1.48;;;17.10;98.10;;;;;;4983362;28;20226;-69
2022/11/07 11:39:43;;;;;;;4.03;1.80;;;17.30;98.00;;;;;;4981830;28;20195;-70
2022/11/07 11:42:23;;;;;;;2.35;1.52;;;17.30;98.20;;;;;;5000996;28;20198;-69
2022/11/07 11:44:51;;;;;;;3.10;1.70;;;17.80;98.40;;;;;;5014398;28;20650;-70
2022/11/07 11:47:22;;;;;;;2.25;1.27;;;17.50;97.60;;;;;;5021703;28;20214;-69
2022/11/07 11:50:18;;;;;;;2.25;1.52;;;17.50;96.40;;;;;;5011889;28;20723;-69
2022/11/07 11:52:44;;;;;;;1.95;1.33;;;17.60;96.50;;;;;;4988006;28;20233;-69
2022/11/07 11:55:15;;;;;;;2.92;1.15;;;17.90;96.60;;;;;;4997260;28;20519;-69
2022/11/07 11:58:12;;;;;;;1.52;1.38;;;17.80;95.90;;;;;;5008960;28;20187;-69
2022/11/07 12:00:52;;;;;;;1.98;1.10;;;17.50;95.90;;;;;;4982114;28;20210;-69
2022/11/07 12:03:46;;;;;;;6.15;1.50;;;17.70;95.70;;;;;;4991919;28;20197;-70
2022/11/07 12:06:33;;;;;;;1.50;1.08;;;17.70;95.40;;;;;;4991157;28;20731;-70
2022/11/07 12:09:09;;;;;;;3.92;1.42;;;17.70;95.50;;;;;;5014361;28;20214;-70
2022/11/07 12:12:11;;;;;;;1.80;1.15;;;17.70;95.40;;;;;;5028001;28;20205;-69
2022/11/07 12:14:54;;;;;;;5.95;1.85;;;17.70;95.10;;;;;;5020867;28;20271;-70
2022/11/07 12:17:36;;;;;;;1.30;0.95;;;17.90;95.00;;;;;;5011086;28;20233;-70
2022/11/07 12:20:25;;;;;;;3.85;1.52;;;17.90;95.00;;;;;;5011565;28;20245;-70
2022/11/07 12:23:12;;;;;;;1.45;1.10;;;17.70;94.70;;;;;;5011101;28;20223;-69
2022/11/07 12:25:48;;;;;;;1.75;1.10;;;17.90;94.80;;;;;;5004762;28;20746;-69
2022/11/07 12:28:30;;;;;;;1.70;1.00;;;18.00;94.40;;;;;;5012619;28;20222;-69
2022/11/07 12:31:02;;;;;;;3.10;2.10;;;18.00;94.50;;;;;;5013088;28;20187;-70
2022/11/07 12:33:39;;;;;;;2.90;2.40;;;18.00;94.60;;;;;;5005134;28;20179;-70
2022/11/07 12:36:12;;;;;;;3.55;1.40;;;18.00;94.90;;;;;;4991638;28;20195;-68
2022/11/07 12:38:56;;;;;;;6.38;1.48;;;17.90;94.20;;;;;;4994499;28;20258;-68
2022/11/07 12:41:57;;;;;;;4.10;1.60;;;17.70;94.40;;;;;;5019034;28;20182;-69
2022/11/07 12:44:29;;;;;;;2.00;1.48;;;17.80;94.50;;;;;;5032650;28;20181;-69
2022/11/07 12:47:00;;;;;;;2.45;1.30;;;17.90;94.60;;;;;;5020824;28;20287;-69
2022/11/07 12:50:10;;;;;;;2.25;1.70;;;17.80;94.50;;;;;;5004249;28;20547;-69
2022/11/07 12:53:01;;;;;;;1.30;1.20;;;17.90;94.30;;;;;;4995220;28;20280;-69
2022/11/07 12:55:35;;;;;;;2.20;1.45;;;17.70;94.30;;;;;;5010158;28;20285;-69
2022/11/07 12:58:02;;;;;;;2.33;1.10;;;17.60;94.40;;;;;;4994701;28;20208;-69
2022/11/07 13:00:28;;;;;;;4.50;1.38;;;17.50;94.30;;;;;;5014866;28;20190;-69
2022/11/07 13:03:16;;;;;;;4.45;1.48;;;18.20;94.60;;;;;;5011263;28;20186;-68
2022/11/07 13:05:56;;;;;;;4.03;1.10;;;17.50;94.90;;;;;;4994734;28;20255;-69
2022/11/07 13:08:33;;;;;;;1.88;1.25;;;17.50;94.20;;;;;;5007745;28;20215;-69
2022/11/07 13:11:26;;;;;;;2.30;1.45;;;17.30;94.30;;;;;;4999488;28;20723;-69
2022/11/07 13:14:22;;;;;;;1.90;1.10;;;17.30;94.70;;;;;;5006505;28;20190;-69
2022/11/07 13:17:02;;;;;;;6.00;1.50;;;17.20;95.00;;;;;;5014103;28;20298;-69
2022/11/07 13:19:36;;;;;;;1.98;1.73;;;17.10;95.20;;;;;;4997902;28;20175;-69